Accueil
METAR-TAF:

METAR-TAF

Aéroports :

Atka, Alaska, États-Unis

latitude: 52-13-13N, longitude: 174-12-23W, altitude: 17 m

Observation

Le bulletin a été fait il y a 22 minutes, à 18:56 UTC
Vent 22 kt de sud avec des rafales jusqu'à 29 kt
Température 6°C
Humidité 56%
Pression 1025 hPa
Visibilité: 16.1 km
Nuages fragmentés à une hauteur de 6000 ft
Ciel couvert à une hauteur de 9500 ft

METAR: PAAK 031856Z AUTO 17022G29KT 10SM BKN060 OVC095 06/M02 A3028 RMK AO2 PK WND 16029/1855 SLP255 T00611017 PNO $

Heure: 11:18 (19:18 UTC)


TAF: absent

Observations et prévisions météorologiques de plus de 4000 aéroports (messages METAR et TAF).

Les stations disponibles sont représentées par des disques jaunes et rouges sur la carte.

Passer la souris dessus pour voir le nom de la station.

Cliquer dessus pour voir les observations et prévisions météorologiques.

Pour changer de carte: cliquez sur les boutons verts avec une croix noire pour zoomer, sur le bouton vert avec un tiret pour effectuer un zoom arrière, ou sur les flèches vertes pour les cartes adjacentes.


METAR-TAF: